sensor_id;sensor_type;location;lat;lon;timestamp;P1;durP1;ratioP1;P2;durP2;ratioP2
57085;SDS011;42964;42.910;23.792;2024-03-07T00:03:30;60.05;;;31.02;;
57085;SDS011;42964;42.910;23.792;2024-03-07T00:08:29;58.15;;;30.10;;
57085;SDS011;42964;42.910;23.792;2024-03-07T00:13:29;62.38;;;34.03;;
57085;SDS011;42964;42.910;23.792;2024-03-07T00:18:28;69.45;;;34.55;;
57085;SDS011;42964;42.910;23.792;2024-03-07T00:28:26;66.05;;;33.42;;
57085;SDS011;42964;42.910;23.792;2024-03-07T00:33:30;74.72;;;37.70;;
57085;SDS011;42964;42.910;23.792;2024-03-07T00:38:29;68.05;;;35.15;;
57085;SDS011;42964;42.910;23.792;2024-03-07T00:43:28;70.65;;;36.47;;
57085;SDS011;42964;42.910;23.792;2024-03-07T00:48:27;69.22;;;34.42;;
57085;SDS011;42964;42.910;23.792;2024-03-07T00:53:28;69.03;;;34.92;;
57085;SDS011;42964;42.910;23.792;2024-03-07T00:58:27;66.95;;;36.72;;
57085;SDS011;42964;42.910;23.792;2024-03-07T01:03:26;73.85;;;38.30;;
57085;SDS011;42964;42.910;23.792;2024-03-07T01:13:24;59.75;;;31.15;;
57085;SDS011;42964;42.910;23.792;2024-03-07T01:18:23;54.97;;;29.08;;
57085;SDS011;42964;42.910;23.792;2024-03-07T01:23:22;65.03;;;33.72;;
57085;SDS011;42964;42.910;23.792;2024-03-07T01:28:21;59.20;;;29.10;;
57085;SDS011;42964;42.910;23.792;2024-03-07T01:33:21;60.65;;;27.77;;
57085;SDS011;42964;42.910;23.792;2024-03-07T01:38:20;57.95;;;30.45;;
57085;SDS011;42964;42.910;23.792;2024-03-07T01:43:19;63.05;;;30.25;;
57085;SDS011;42964;42.910;23.792;2024-03-07T01:48:21;79.35;;;36.78;;
57085;SDS011;42964;42.910;23.792;2024-03-07T01:53:28;74.40;;;36.47;;
57085;SDS011;42964;42.910;23.792;2024-03-07T01:58:29;78.22;;;37.88;;
57085;SDS011;42964;42.910;23.792;2024-03-07T02:03:29;77.57;;;37.83;;
57085;SDS011;42964;42.910;23.792;2024-03-07T02:13:27;80.85;;;38.50;;
57085;SDS011;42964;42.910;23.792;2024-03-07T02:18:26;84.60;;;39.28;;
57085;SDS011;42964;42.910;23.792;2024-03-07T02:23:25;78.78;;;40.00;;
57085;SDS011;42964;42.910;23.792;2024-03-07T02:28:26;79.40;;;39.45;;
57085;SDS011;42964;42.910;23.792;2024-03-07T02:33:25;80.55;;;38.25;;
57085;SDS011;42964;42.910;23.792;2024-03-07T02:38:24;81.40;;;38.67;;
57085;SDS011;42964;42.910;23.792;2024-03-07T02:43:23;55.88;;;30.50;;
57085;SDS011;42964;42.910;23.792;2024-03-07T02:48:22;39.83;;;23.20;;
57085;SDS011;42964;42.910;23.792;2024-03-07T02:53:21;34.15;;;19.15;;
57085;SDS011;42964;42.910;23.792;2024-03-07T02:58:20;33.72;;;19.27;;
57085;SDS011;42964;42.910;23.792;2024-03-07T03:03:19;27.38;;;17.50;;
57085;SDS011;42964;42.910;23.792;2024-03-07T03:08:18;27.08;;;16.88;;
57085;SDS011;42964;42.910;23.792;2024-03-07T03:13:17;20.50;;;12.25;;
57085;SDS011;42964;42.910;23.792;2024-03-07T03:18:16;12.27;;;7.82;;
57085;SDS011;42964;42.910;23.792;2024-03-07T03:23:15;12.68;;;7.50;;
57085;SDS011;42964;42.910;23.792;2024-03-07T03:28:14;11.63;;;7.32;;
57085;SDS011;42964;42.910;23.792;2024-03-07T03:33:13;8.32;;;5.50;;
57085;SDS011;42964;42.910;23.792;2024-03-07T03:38:13;8.77;;;5.53;;
57085;SDS011;42964;42.910;23.792;2024-03-07T03:43:12;7.15;;;4.90;;
57085;SDS011;42964;42.910;23.792;2024-03-07T03:48:11;8.32;;;4.32;;
57085;SDS011;42964;42.910;23.792;2024-03-07T03:53:12;6.80;;;3.83;;
57085;SDS011;42964;42.910;23.792;2024-03-07T03:58:10;5.30;;;2.80;;
57085;SDS011;42964;42.910;23.792;2024-03-07T04:03:10;3.28;;;2.28;;
57085;SDS011;42964;42.910;23.792;2024-03-07T04:08:08;3.22;;;2.17;;
57085;SDS011;42964;42.910;23.792;2024-03-07T04:13:08;3.45;;;2.65;;
57085;SDS011;42964;42.910;23.792;2024-03-07T04:18:07;4.03;;;2.65;;
57085;SDS011;42964;42.910;23.792;2024-03-07T04:23:06;3.65;;;2.28;;
57085;SDS011;42964;42.910;23.792;2024-03-07T04:33:04;2.67;;;2.05;;
57085;SDS011;42964;42.910;23.792;2024-03-07T04:38:04;2.70;;;2.03;;
57085;SDS011;42964;42.910;23.792;2024-03-07T04:43:08;3.95;;;1.80;;
57085;SDS011;42964;42.910;23.792;2024-03-07T04:48:07;2.65;;;1.88;;
57085;SDS011;42964;42.910;23.792;2024-03-07T04:53:07;1.92;;;1.73;;
57085;SDS011;42964;42.910;23.792;2024-03-07T04:58:06;2.72;;;1.90;;
57085;SDS011;42964;42.910;23.792;2024-03-07T05:03:05;2.22;;;1.70;;
57085;SDS011;42964;42.910;23.792;2024-03-07T05:08:04;2.10;;;1.50;;
57085;SDS011;42964;42.910;23.792;2024-03-07T05:13:03;2.42;;;1.67;;
57085;SDS011;42964;42.910;23.792;2024-03-07T05:18:03;3.30;;;2.00;;
57085;SDS011;42964;42.910;23.792;2024-03-07T05:23:03;2.15;;;1.83;;
57085;SDS011;42964;42.910;23.792;2024-03-07T05:28:03;1.67;;;1.50;;
57085;SDS011;42964;42.910;23.792;2024-03-07T05:38:02;2.93;;;1.87;;
57085;SDS011;42964;42.910;23.792;2024-03-07T05:43:03;4.03;;;1.98;;
57085;SDS011;42964;42.910;23.792;2024-03-07T05:48:13;5.32;;;2.58;;
57085;SDS011;42964;42.910;23.792;2024-03-07T05:53:13;3.90;;;2.58;;
57085;SDS011;42964;42.910;23.792;2024-03-07T05:58:12;10.00;;;5.00;;
57085;SDS011;42964;42.910;23.792;2024-03-07T06:03:11;9.70;;;5.60;;
57085;SDS011;42964;42.910;23.792;2024-03-07T06:08:12;6.45;;;4.18;;
57085;SDS011;42964;42.910;23.792;2024-03-07T06:13:12;27.33;;;17.13;;
57085;SDS011;42964;42.910;23.792;2024-03-07T06:18:12;6.28;;;3.47;;
57085;SDS011;42964;42.910;23.792;2024-03-07T06:23:15;39.65;;;21.90;;
57085;SDS011;42964;42.910;23.792;2024-03-07T06:28:15;10.10;;;6.47;;
57085;SDS011;42964;42.910;23.792;2024-03-07T06:33:15;11.93;;;7.18;;
57085;SDS011;42964;42.910;23.792;2024-03-07T06:38:18;12.05;;;7.05;;
57085;SDS011;42964;42.910;23.792;2024-03-07T06:43:17;12.13;;;6.57;;
57085;SDS011;42964;42.910;23.792;2024-03-07T06:48:16;13.60;;;7.93;;
57085;SDS011;42964;42.910;23.792;2024-03-07T06:53:16;9.32;;;5.40;;
57085;SDS011;42964;42.910;23.792;2024-03-07T06:58:15;10.43;;;6.43;;
57085;SDS011;42964;42.910;23.792;2024-03-07T07:03:15;6.50;;;4.05;;
57085;SDS011;42964;42.910;23.792;2024-03-07T07:08:15;5.38;;;3.10;;
57085;SDS011;42964;42.910;23.792;2024-03-07T07:13:14;3.80;;;2.75;;
57085;SDS011;42964;42.910;23.792;2024-03-07T07:18:13;3.72;;;2.83;;
57085;SDS011;42964;42.910;23.792;2024-03-07T07:23:12;2.58;;;2.15;;
57085;SDS011;42964;42.910;23.792;2024-03-07T07:33:10;7.28;;;4.43;;
57085;SDS011;42964;42.910;23.792;2024-03-07T07:38:09;11.27;;;6.28;;
57085;SDS011;42964;42.910;23.792;2024-03-07T07:43:09;8.20;;;3.13;;
57085;SDS011;42964;42.910;23.792;2024-03-07T07:48:12;4.35;;;2.75;;
57085;SDS011;42964;42.910;23.792;2024-03-07T07:53:11;3.97;;;2.33;;
57085;SDS011;42964;42.910;23.792;2024-03-07T07:58:10;1.98;;;1.77;;
57085;SDS011;42964;42.910;23.792;2024-03-07T08:03:09;2.20;;;2.00;;
57085;SDS011;42964;42.910;23.792;2024-03-07T08:08:10;3.05;;;2.15;;
57085;SDS011;42964;42.910;23.792;2024-03-07T08:13:12;2.72;;;2.33;;
57085;SDS011;42964;42.910;23.792;2024-03-07T08:18:11;2.72;;;2.28;;
57085;SDS011;42964;42.910;23.792;2024-03-07T08:23:11;4.38;;;2.80;;
57085;SDS011;42964;42.910;23.792;2024-03-07T08:28:11;3.17;;;2.28;;
57085;SDS011;42964;42.910;23.792;2024-03-07T08:33:10;3.30;;;2.40;;
57085;SDS011;42964;42.910;23.792;2024-03-07T08:38:09;3.13;;;2.40;;
57085;SDS011;42964;42.910;23.792;2024-03-07T08:48:07;2.35;;;1.77;;
57085;SDS011;42964;42.910;23.792;2024-03-07T08:53:07;3.25;;;1.80;;
57085;SDS011;42964;42.910;23.792;2024-03-07T08:58:07;1.98;;;1.77;;
57085;SDS011;42964;42.910;23.792;2024-03-07T09:03:07;2.50;;;2.30;;
57085;SDS011;42964;42.910;23.792;2024-03-07T09:08:08;1.83;;;1.67;;
57085;SDS011;42964;42.910;23.792;2024-03-07T09:13:07;2.90;;;2.53;;
57085;SDS011;42964;42.910;23.792;2024-03-07T09:18:06;2.47;;;2.10;;
57085;SDS011;42964;42.910;23.792;2024-03-07T09:23:06;1.65;;;1.55;;
57085;SDS011;42964;42.910;23.792;2024-03-07T09:28:05;2.00;;;1.65;;
57085;SDS011;42964;42.910;23.792;2024-03-07T09:33:04;3.58;;;1.92;;
57085;SDS011;42964;42.910;23.792;2024-03-07T09:38:04;3.42;;;2.40;;
57085;SDS011;42964;42.910;23.792;2024-03-07T09:43:03;3.47;;;1.90;;
57085;SDS011;42964;42.910;23.792;2024-03-07T09:48:04;2.92;;;2.10;;
57085;SDS011;42964;42.910;23.792;2024-03-07T09:53:07;1.98;;;1.73;;
57085;SDS011;42964;42.910;23.792;2024-03-07T09:58:07;2.97;;;1.83;;
57085;SDS011;42964;42.910;23.792;2024-03-07T10:03:09;2.30;;;1.90;;
57085;SDS011;42964;42.910;23.792;2024-03-07T10:08:08;4.10;;;2.50;;
57085;SDS011;42964;42.910;23.792;2024-03-07T10:13:09;2.65;;;2.42;;
57085;SDS011;42964;42.910;23.792;2024-03-07T10:18:08;2.53;;;2.33;;
57085;SDS011;42964;42.910;23.792;2024-03-07T10:23:12;4.20;;;2.97;;
57085;SDS011;42964;42.910;23.792;2024-03-07T10:28:18;3.55;;;2.38;;
57085;SDS011;42964;42.910;23.792;2024-03-07T10:33:17;4.00;;;2.85;;
57085;SDS011;42964;42.910;23.792;2024-03-07T10:38:16;4.05;;;2.90;;
57085;SDS011;42964;42.910;23.792;2024-03-07T10:43:18;3.10;;;2.42;;
57085;SDS011;42964;42.910;23.792;2024-03-07T10:48:19;4.15;;;2.55;;
57085;SDS011;42964;42.910;23.792;2024-03-07T10:53:44;4.97;;;2.50;;
57085;SDS011;42964;42.910;23.792;2024-03-07T10:58:55;3.53;;;2.25;;
57085;SDS011;42964;42.910;23.792;2024-03-07T11:03:58;4.45;;;2.90;;
57085;SDS011;42964;42.910;23.792;2024-03-07T11:08:58;3.63;;;2.53;;
57085;SDS011;42964;42.910;23.792;2024-03-07T11:13:57;3.28;;;2.50;;
57085;SDS011;42964;42.910;23.792;2024-03-07T11:24:37;4.20;;;3.00;;
57085;SDS011;42964;42.910;23.792;2024-03-07T11:34:44;5.93;;;3.42;;
57085;SDS011;42964;42.910;23.792;2024-03-07T11:39:47;4.85;;;3.17;;
57085;SDS011;42964;42.910;23.792;2024-03-07T11:44:49;5.70;;;2.88;;
57085;SDS011;42964;42.910;23.792;2024-03-07T11:49:52;3.67;;;2.90;;
57085;SDS011;42964;42.910;23.792;2024-03-07T11:54:52;5.07;;;3.58;;
57085;SDS011;42964;42.910;23.792;2024-03-07T11:59:51;4.25;;;3.10;;
57085;SDS011;42964;42.910;23.792;2024-03-07T12:04:50;5.82;;;3.67;;
57085;SDS011;42964;42.910;23.792;2024-03-07T12:14:49;6.57;;;3.28;;
57085;SDS011;42964;42.910;23.792;2024-03-07T12:19:50;5.40;;;3.90;;
57085;SDS011;42964;42.910;23.792;2024-03-07T12:25:00;5.25;;;3.92;;
57085;SDS011;42964;42.910;23.792;2024-03-07T12:30:01;6.72;;;4.15;;
57085;SDS011;42964;42.910;23.792;2024-03-07T12:35:06;9.15;;;5.07;;
57085;SDS011;42964;42.910;23.792;2024-03-07T12:40:11;12.40;;;8.02;;
57085;SDS011;42964;42.910;23.792;2024-03-07T12:45:21;11.30;;;8.40;;
57085;SDS011;42964;42.910;23.792;2024-03-07T12:50:20;13.98;;;9.88;;
57085;SDS011;42964;42.910;23.792;2024-03-07T12:55:20;16.50;;;10.25;;
57085;SDS011;42964;42.910;23.792;2024-03-07T13:00:22;15.45;;;10.35;;
57085;SDS011;42964;42.910;23.792;2024-03-07T13:05:21;17.13;;;10.38;;
57085;SDS011;42964;42.910;23.792;2024-03-07T13:10:20;17.33;;;10.55;;
57085;SDS011;42964;42.910;23.792;2024-03-07T13:15:19;16.33;;;9.43;;
57085;SDS011;42964;42.910;23.792;2024-03-07T13:20:21;21.45;;;12.45;;
57085;SDS011;42964;42.910;23.792;2024-03-07T13:25:25;22.27;;;13.35;;
57085;SDS011;42964;42.910;23.792;2024-03-07T13:30:24;21.13;;;11.13;;
57085;SDS011;42964;42.910;23.792;2024-03-07T13:35:25;23.77;;;14.55;;
57085;SDS011;42964;42.910;23.792;2024-03-07T13:40:26;22.55;;;13.90;;
57085;SDS011;42964;42.910;23.792;2024-03-07T13:45:26;22.98;;;12.93;;
57085;SDS011;42964;42.910;23.792;2024-03-07T13:50:27;20.77;;;10.88;;
57085;SDS011;42964;42.910;23.792;2024-03-07T13:55:27;23.33;;;13.93;;
57085;SDS011;42964;42.910;23.792;2024-03-07T14:00:29;25.25;;;14.68;;
57085;SDS011;42964;42.910;23.792;2024-03-07T14:16:40;26.33;;;12.38;;
57085;SDS011;42964;42.910;23.792;2024-03-07T14:32:23;24.10;;;13.38;;
57085;SDS011;42964;42.910;23.792;2024-03-07T14:37:25;21.70;;;12.48;;
57085;SDS011;42964;42.910;23.792;2024-03-07T14:42:26;23.48;;;12.23;;
57085;SDS011;42964;42.910;23.792;2024-03-07T14:47:26;21.02;;;11.18;;
57085;SDS011;42964;42.910;23.792;2024-03-07T14:52:25;29.38;;;11.80;;
57085;SDS011;42964;42.910;23.792;2024-03-07T14:57:26;28.58;;;15.85;;
57085;SDS011;42964;42.910;23.792;2024-03-07T15:07:24;24.60;;;12.60;;
57085;SDS011;42964;42.910;23.792;2024-03-07T15:12:23;22.40;;;12.57;;
57085;SDS011;42964;42.910;23.792;2024-03-07T15:17:22;19.73;;;12.43;;
57085;SDS011;42964;42.910;23.792;2024-03-07T15:22:22;20.15;;;11.60;;
57085;SDS011;42964;42.910;23.792;2024-03-07T15:27:21;20.55;;;11.35;;
57085;SDS011;42964;42.910;23.792;2024-03-07T15:32:20;34.97;;;15.20;;
57085;SDS011;42964;42.910;23.792;2024-03-07T15:37:19;30.60;;;16.42;;
57085;SDS011;42964;42.910;23.792;2024-03-07T15:42:21;21.52;;;12.07;;
57085;SDS011;42964;42.910;23.792;2024-03-07T15:47:20;20.40;;;12.07;;
57085;SDS011;42964;42.910;23.792;2024-03-07T15:52:20;25.90;;;14.52;;
57085;SDS011;42964;42.910;23.792;2024-03-07T15:57:20;27.15;;;15.65;;
57085;SDS011;42964;42.910;23.792;2024-03-07T16:02:19;26.20;;;15.50;;
57085;SDS011;42964;42.910;23.792;2024-03-07T16:07:20;29.05;;;16.50;;
57085;SDS011;42964;42.910;23.792;2024-03-07T16:12:19;30.98;;;17.50;;
57085;SDS011;42964;42.910;23.792;2024-03-07T16:22:18;50.15;;;29.45;;
57085;SDS011;42964;42.910;23.792;2024-03-07T16:27:17;30.63;;;17.70;;
57085;SDS011;42964;42.910;23.792;2024-03-07T16:32:16;32.58;;;21.33;;
57085;SDS011;42964;42.910;23.792;2024-03-07T16:37:15;73.47;;;66.07;;
57085;SDS011;42964;42.910;23.792;2024-03-07T16:42:14;16.88;;;10.38;;
57085;SDS011;42964;42.910;23.792;2024-03-07T16:47:14;15.93;;;9.25;;
57085;SDS011;42964;42.910;23.792;2024-03-07T16:52:13;18.45;;;11.55;;
57085;SDS011;42964;42.910;23.792;2024-03-07T16:57:12;22.52;;;14.02;;
57085;SDS011;42964;42.910;23.792;2024-03-07T17:02:10;16.13;;;9.38;;
57085;SDS011;42964;42.910;23.792;2024-03-07T17:07:09;15.57;;;9.02;;
57085;SDS011;42964;42.910;23.792;2024-03-07T17:12:10;17.70;;;10.10;;
57085;SDS011;42964;42.910;23.792;2024-03-07T17:17:10;14.80;;;9.05;;
57085;SDS011;42964;42.910;23.792;2024-03-07T17:22:12;14.77;;;9.05;;
57085;SDS011;42964;42.910;23.792;2024-03-07T17:27:11;18.90;;;9.70;;
57085;SDS011;42964;42.910;23.792;2024-03-07T17:32:11;39.40;;;25.60;;
57085;SDS011;42964;42.910;23.792;2024-03-07T17:37:13;18.52;;;10.68;;
57085;SDS011;42964;42.910;23.792;2024-03-07T17:42:15;27.55;;;23.38;;
57085;SDS011;42964;42.910;23.792;2024-03-07T17:47:14;17.23;;;10.15;;
57085;SDS011;42964;42.910;23.792;2024-03-07T17:52:13;16.10;;;9.68;;
57085;SDS011;42964;42.910;23.792;2024-03-07T17:57:13;11.05;;;7.35;;
57085;SDS011;42964;42.910;23.792;2024-03-07T18:02:15;13.00;;;7.47;;
57085;SDS011;42964;42.910;23.792;2024-03-07T18:07:18;17.38;;;11.25;;
57085;SDS011;42964;42.910;23.792;2024-03-07T18:12:20;16.48;;;10.27;;
57085;SDS011;42964;42.910;23.792;2024-03-07T18:17:21;17.60;;;10.60;;
57085;SDS011;42964;42.910;23.792;2024-03-07T18:22:21;16.95;;;9.13;;
57085;SDS011;42964;42.910;23.792;2024-03-07T18:27:20;15.20;;;9.95;;
57085;SDS011;42964;42.910;23.792;2024-03-07T18:32:18;16.65;;;11.50;;
57085;SDS011;42964;42.910;23.792;2024-03-07T18:37:18;14.63;;;9.55;;
57085;SDS011;42964;42.910;23.792;2024-03-07T18:42:16;11.70;;;7.10;;
57085;SDS011;42964;42.910;23.792;2024-03-07T18:47:15;6.90;;;3.90;;
57085;SDS011;42964;42.910;23.792;2024-03-07T18:52:17;19.60;;;12.32;;
57085;SDS011;42964;42.910;23.792;2024-03-07T18:57:17;25.88;;;16.80;;
57085;SDS011;42964;42.910;23.792;2024-03-07T19:02:18;23.38;;;13.50;;
57085;SDS011;42964;42.910;23.792;2024-03-07T19:07:18;22.48;;;15.05;;
57085;SDS011;42964;42.910;23.792;2024-03-07T19:12:17;20.73;;;12.93;;
57085;SDS011;42964;42.910;23.792;2024-03-07T19:17:16;16.58;;;10.55;;
57085;SDS011;42964;42.910;23.792;2024-03-07T19:22:15;15.05;;;9.60;;
57085;SDS011;42964;42.910;23.792;2024-03-07T19:27:14;15.50;;;9.93;;
57085;SDS011;42964;42.910;23.792;2024-03-07T19:32:14;14.82;;;9.95;;
57085;SDS011;42964;42.910;23.792;2024-03-07T19:37:13;16.73;;;10.98;;
57085;SDS011;42964;42.910;23.792;2024-03-07T19:42:12;24.63;;;14.38;;
57085;SDS011;42964;42.910;23.792;2024-03-07T19:47:11;24.38;;;14.63;;
57085;SDS011;42964;42.910;23.792;2024-03-07T19:52:12;22.67;;;13.55;;
57085;SDS011;42964;42.910;23.792;2024-03-07T19:57:11;33.45;;;19.25;;
57085;SDS011;42964;42.910;23.792;2024-03-07T20:02:10;26.27;;;14.95;;
57085;SDS011;42964;42.910;23.792;2024-03-07T20:07:09;20.77;;;13.75;;
57085;SDS011;42964;42.910;23.792;2024-03-07T20:12:09;18.05;;;11.45;;
57085;SDS011;42964;42.910;23.792;2024-03-07T20:17:08;20.27;;;12.85;;
57085;SDS011;42964;42.910;23.792;2024-03-07T20:22:10;21.17;;;13.10;;
57085;SDS011;42964;42.910;23.792;2024-03-07T20:27:09;22.25;;;13.45;;
57085;SDS011;42964;42.910;23.792;2024-03-07T20:32:09;25.33;;;16.65;;
57085;SDS011;42964;42.910;23.792;2024-03-07T20:37:08;12.27;;;8.63;;
57085;SDS011;42964;42.910;23.792;2024-03-07T20:42:10;8.60;;;5.70;;
57085;SDS011;42964;42.910;23.792;2024-03-07T20:47:09;13.90;;;8.40;;
57085;SDS011;42964;42.910;23.792;2024-03-07T20:52:08;13.48;;;10.20;;
57085;SDS011;42964;42.910;23.792;2024-03-07T20:57:09;8.30;;;5.43;;
57085;SDS011;42964;42.910;23.792;2024-03-07T21:02:08;8.63;;;5.07;;
57085;SDS011;42964;42.910;23.792;2024-03-07T21:07:07;8.45;;;5.13;;
57085;SDS011;42964;42.910;23.792;2024-03-07T21:12:07;10.85;;;6.82;;
57085;SDS011;42964;42.910;23.792;2024-03-07T21:17:10;9.20;;;5.75;;
57085;SDS011;42964;42.910;23.792;2024-03-07T21:22:09;10.05;;;5.00;;
57085;SDS011;42964;42.910;23.792;2024-03-07T21:27:10;9.82;;;5.78;;
57085;SDS011;42964;42.910;23.792;2024-03-07T21:32:11;10.38;;;6.00;;
57085;SDS011;42964;42.910;23.792;2024-03-07T21:37:12;9.93;;;5.70;;
57085;SDS011;42964;42.910;23.792;2024-03-07T21:42:11;8.05;;;4.57;;
57085;SDS011;42964;42.910;23.792;2024-03-07T21:47:10;8.80;;;5.03;;
57085;SDS011;42964;42.910;23.792;2024-03-07T21:52:11;6.40;;;4.05;;
57085;SDS011;42964;42.910;23.792;2024-03-07T21:57:15;8.07;;;5.80;;
57085;SDS011;42964;42.910;23.792;2024-03-07T22:02:14;11.57;;;8.32;;
57085;SDS011;42964;42.910;23.792;2024-03-07T22:07:13;9.35;;;6.18;;
57085;SDS011;42964;42.910;23.792;2024-03-07T22:12:15;11.52;;;6.70;;
57085;SDS011;42964;42.910;23.792;2024-03-07T22:17:14;12.13;;;8.10;;
57085;SDS011;42964;42.910;23.792;2024-03-07T22:22:13;16.73;;;9.90;;
57085;SDS011;42964;42.910;23.792;2024-03-07T22:27:12;23.15;;;14.63;;
57085;SDS011;42964;42.910;23.792;2024-03-07T22:32:11;15.40;;;10.63;;
57085;SDS011;42964;42.910;23.792;2024-03-07T22:37:10;28.30;;;12.57;;
57085;SDS011;42964;42.910;23.792;2024-03-07T22:42:11;16.00;;;9.52;;
57085;SDS011;42964;42.910;23.792;2024-03-07T22:47:10;17.15;;;8.35;;
57085;SDS011;42964;42.910;23.792;2024-03-07T22:52:10;27.40;;;13.90;;
57085;SDS011;42964;42.910;23.792;2024-03-07T22:57:09;20.60;;;10.48;;
57085;SDS011;42964;42.910;23.792;2024-03-07T23:02:10;13.48;;;8.40;;
57085;SDS011;42964;42.910;23.792;2024-03-07T23:07:09;13.07;;;8.00;;
57085;SDS011;42964;42.910;23.792;2024-03-07T23:12:10;13.50;;;8.38;;
57085;SDS011;42964;42.910;23.792;2024-03-07T23:17:09;12.32;;;7.45;;
57085;SDS011;42964;42.910;23.792;2024-03-07T23:22:09;15.48;;;8.13;;
57085;SDS011;42964;42.910;23.792;2024-03-07T23:27:08;15.55;;;9.18;;
57085;SDS011;42964;42.910;23.792;2024-03-07T23:32:08;12.93;;;7.35;;
57085;SDS011;42964;42.910;23.792;2024-03-07T23:37:07;12.35;;;7.65;;
57085;SDS011;42964;42.910;23.792;2024-03-07T23:42:07;18.77;;;10.73;;
57085;SDS011;42964;42.910;23.792;2024-03-07T23:47:22;19.25;;;9.18;;
57085;SDS011;42964;42.910;23.792;2024-03-07T23:52:20;14.10;;;8.23;;
57085;SDS011;42964;42.910;23.792;2024-03-07T23:57:19;13.80;;;8.52;;
